createdAt,value
2023-02-19T00:00:18.936Z,10.30
2023-02-19T00:02:45.569Z,9.79
2023-02-19T00:05:12.207Z,9.63
2023-02-19T00:07:38.907Z,9.44
2023-02-19T00:10:05.774Z,9.39
2023-02-19T00:12:32.403Z,8.81
2023-02-19T00:14:58.991Z,9.11
2023-02-19T00:17:25.596Z,9.08
2023-02-19T00:19:52.289Z,9.25
2023-02-19T00:22:18.905Z,9.47
2023-02-19T00:24:46.491Z,9.39
2023-02-19T00:27:14.418Z,9.87
2023-02-19T00:29:41.056Z,9.45
2023-02-19T00:32:07.750Z,9.47
2023-02-19T00:34:34.393Z,9.96
2023-02-19T00:37:01.017Z,10.10
2023-02-19T00:39:27.628Z,9.71
2023-02-19T00:41:54.247Z,9.64
2023-02-19T00:44:21.001Z,9.24
2023-02-19T00:46:47.588Z,9.29
2023-02-19T00:49:21.893Z,8.89
2023-02-19T00:51:49.018Z,9.28
2023-02-19T00:54:15.750Z,9.04
2023-02-19T00:56:42.438Z,8.98
2023-02-19T00:59:09.316Z,9.10
2023-02-19T01:01:36.035Z,8.97
2023-02-19T01:04:04.304Z,9.13
2023-02-19T01:06:32.875Z,9.64
2023-02-19T01:08:59.474Z,10.02
2023-02-19T01:11:26.109Z,10.05
2023-02-19T01:13:52.886Z,9.56
2023-02-19T01:16:20.986Z,9.96
2023-02-19T01:18:47.848Z,9.92
2023-02-19T01:21:19.359Z,9.29
2023-02-19T01:23:46.370Z,9.09
2023-02-19T01:26:15.142Z,9.18
2023-02-19T01:28:41.825Z,9.68
2023-02-19T01:31:10.920Z,9.70
2023-02-19T01:33:37.846Z,9.25
2023-02-19T01:36:04.934Z,9.76
2023-02-19T01:38:31.586Z,9.50
2023-02-19T01:41:02.295Z,9.45
2023-02-19T01:43:28.882Z,9.40
2023-02-19T01:45:55.528Z,8.97
2023-02-19T01:48:33.455Z,9.51
2023-02-19T01:51:06.196Z,8.76
2023-02-19T01:53:35.745Z,8.72
2023-02-19T01:56:02.410Z,8.99
2023-02-19T01:58:31.528Z,9.32
2023-02-19T02:00:58.684Z,9.20
2023-02-19T02:03:25.487Z,8.79
2023-02-19T02:06:04.647Z,8.51
2023-02-19T02:08:31.617Z,8.87
2023-02-19T02:10:58.360Z,9.03
2023-02-19T02:13:25.092Z,9.13
2023-02-19T02:16:11.421Z,8.81
2023-02-19T02:19:02.843Z,8.79
2023-02-19T02:22:03.175Z,8.73
2023-02-19T02:24:37.158Z,8.60
2023-02-19T02:27:06.555Z,8.72
2023-02-19T02:29:51.927Z,8.60
2023-02-19T02:32:24.776Z,8.82
2023-02-19T02:34:58.201Z,9.19
2023-02-19T02:37:25.771Z,8.92
2023-02-19T02:39:52.413Z,8.67
2023-02-19T02:42:19.054Z,8.69
2023-02-19T02:44:45.685Z,8.79
2023-02-19T02:47:12.294Z,8.92
2023-02-19T02:49:38.948Z,9.10
2023-02-19T02:52:05.654Z,9.04
2023-02-19T02:54:33.050Z,9.18
2023-02-19T02:56:59.662Z,8.56
2023-02-19T02:59:27.856Z,8.63
2023-02-19T03:02:09.393Z,8.46
2023-02-19T03:04:57.913Z,8.76
2023-02-19T03:07:24.581Z,8.26
2023-02-19T03:09:51.211Z,8.26
2023-02-19T03:12:17.912Z,8.34
2023-02-19T03:14:46.717Z,8.57
2023-02-19T03:17:26.169Z,8.47
2023-02-19T03:19:54.368Z,8.67
2023-02-19T03:22:24.668Z,8.25
2023-02-19T03:24:54.239Z,8.92
2023-02-19T03:27:20.880Z,9.09
2023-02-19T03:29:47.802Z,9.38
2023-02-19T03:32:21.122Z,10.82
2023-02-19T03:35:28.162Z,10.26
2023-02-19T03:38:00.589Z,9.65
2023-02-19T03:40:29.652Z,9.92
2023-02-19T03:43:21.370Z,9.21
2023-02-19T03:45:49.378Z,9.16
2023-02-19T03:48:15.957Z,9.71
2023-02-19T03:51:17.876Z,9.12
2023-02-19T03:53:56.084Z,9.52
2023-02-19T03:56:27.980Z,9.93
2023-02-19T03:59:02.055Z,8.59
2023-02-19T04:01:41.738Z,10.39
2023-02-19T04:04:12.973Z,10.34
2023-02-19T04:06:39.674Z,9.52
2023-02-19T04:09:07.497Z,10.15
2023-02-19T04:11:34.159Z,10.33
2023-02-19T04:14:29.904Z,11.01
2023-02-19T04:16:59.848Z,10.45
2023-02-19T04:19:26.485Z,11.33
2023-02-19T04:21:53.327Z,11.04
2023-02-19T04:24:23.351Z,10.90
2023-02-19T04:26:49.955Z,11.15
2023-02-19T04:29:16.578Z,10.96
2023-02-19T04:31:43.211Z,10.34
2023-02-19T04:34:09.893Z,9.65
2023-02-19T04:36:36.513Z,8.33
2023-02-19T04:39:03.118Z,7.04
2023-02-19T04:41:29.744Z,7.32
2023-02-19T04:43:56.449Z,6.79
2023-02-19T04:46:23.131Z,7.32
2023-02-19T04:48:49.803Z,7.08
2023-02-19T04:51:16.479Z,7.45
2023-02-19T04:53:43.125Z,7.16
2023-02-19T04:56:14.404Z,7.26
2023-02-19T04:58:41.469Z,7.56
2023-02-19T05:01:08.986Z,7.47
2023-02-19T05:03:36.101Z,6.51
2023-02-19T05:06:06.922Z,6.73
2023-02-19T05:08:33.570Z,6.75
2023-02-19T05:11:00.765Z,6.94
2023-02-19T05:13:27.440Z,6.75
2023-02-19T05:16:01.434Z,6.68
2023-02-19T05:18:28.245Z,6.48
2023-02-19T05:20:54.867Z,6.42
2023-02-19T05:23:21.484Z,6.38
2023-02-19T05:25:48.638Z,6.32
2023-02-19T05:28:15.325Z,6.10
2023-02-19T05:30:41.937Z,6.23
2023-02-19T05:33:08.577Z,5.93
2023-02-19T05:35:40.164Z,6.26
2023-02-19T05:38:06.846Z,6.44
2023-02-19T05:40:33.768Z,6.49
2023-02-19T05:43:00.354Z,6.81
2023-02-19T05:45:26.993Z,6.65
2023-02-19T05:47:53.659Z,6.59
2023-02-19T05:50:20.352Z,6.52
2023-02-19T05:52:46.996Z,6.49
2023-02-19T05:55:13.668Z,6.25
2023-02-19T05:57:43.961Z,6.33
2023-02-19T06:00:20.225Z,6.66
2023-02-19T06:02:46.909Z,6.35
2023-02-19T06:05:13.972Z,6.39
2023-02-19T06:07:40.613Z,6.28
2023-02-19T06:10:07.801Z,6.28
2023-02-19T06:12:34.400Z,6.97
2023-02-19T06:15:00.989Z,6.63
2023-02-19T06:17:27.604Z,6.64
2023-02-19T06:19:54.199Z,6.79
2023-02-19T06:22:20.900Z,6.86
2023-02-19T06:24:47.871Z,6.77
2023-02-19T06:27:14.534Z,6.68
2023-02-19T06:29:41.134Z,6.41
2023-02-19T06:32:07.915Z,6.79
2023-02-19T06:34:34.789Z,6.76
2023-02-19T06:37:01.432Z,6.50
2023-02-19T06:39:28.042Z,6.59
2023-02-19T06:41:57.860Z,6.70
2023-02-19T06:44:24.740Z,6.83
2023-02-19T06:46:51.558Z,6.51
2023-02-19T06:49:18.160Z,6.63
2023-02-19T06:51:44.808Z,6.52
2023-02-19T06:54:11.483Z,6.64
2023-02-19T06:56:38.738Z,6.66
2023-02-19T06:59:07.454Z,6.72
2023-02-19T07:01:34.923Z,6.70
2023-02-19T07:04:01.759Z,6.63
2023-02-19T07:06:28.475Z,6.44
2023-02-19T07:08:55.731Z,7.02
2023-02-19T07:11:22.606Z,6.65
2023-02-19T07:14:03.673Z,6.95
2023-02-19T07:16:30.480Z,7.25
2023-02-19T07:18:57.894Z,6.93
2023-02-19T07:21:24.574Z,6.86
2023-02-19T07:23:51.211Z,7.44
2023-02-19T07:26:18.564Z,7.07
2023-02-19T07:28:45.987Z,7.19
2023-02-19T07:31:13.091Z,6.59
2023-02-19T07:33:40.002Z,6.90
2023-02-19T07:36:07.354Z,6.92
2023-02-19T07:38:34.024Z,6.94
2023-02-19T07:41:01.782Z,6.98
2023-02-19T07:43:30.193Z,7.01
2023-02-19T07:45:56.880Z,7.22
2023-02-19T07:48:23.710Z,6.93
2023-02-19T07:50:53.516Z,7.17
2023-02-19T07:53:20.306Z,6.85
2023-02-19T07:55:46.940Z,7.08
2023-02-19T07:58:13.572Z,7.31
2023-02-19T08:00:40.253Z,7.15
2023-02-19T08:03:06.886Z,6.64
2023-02-19T08:05:34.780Z,6.79
2023-02-19T08:08:01.449Z,6.68
2023-02-19T08:10:28.194Z,6.73
2023-02-19T08:13:03.741Z,6.60
2023-02-19T08:15:30.419Z,6.44
2023-02-19T08:17:57.122Z,6.53
2023-02-19T08:20:23.763Z,6.43
2023-02-19T08:22:50.548Z,6.78
2023-02-19T08:25:17.168Z,7.32
2023-02-19T08:27:43.768Z,6.62
2023-02-19T08:30:10.839Z,6.80
2023-02-19T08:32:37.561Z,6.21
2023-02-19T08:35:04.456Z,6.24
2023-02-19T08:37:31.231Z,6.57
2023-02-19T08:39:57.847Z,6.41
2023-02-19T08:42:24.499Z,6.46
2023-02-19T08:44:51.213Z,7.01
2023-02-19T08:47:17.950Z,7.12
2023-02-19T08:49:44.620Z,6.83
2023-02-19T08:52:11.257Z,6.61
2023-02-19T08:54:37.903Z,6.63
2023-02-19T08:57:04.569Z,6.46
2023-02-19T08:59:31.722Z,6.39
2023-02-19T09:01:58.923Z,6.64
2023-02-19T09:04:25.578Z,6.85
2023-02-19T09:06:52.264Z,7.10
2023-02-19T09:09:18.864Z,6.70
2023-02-19T09:11:47.386Z,6.71
2023-02-19T09:14:15.120Z,6.89
2023-02-19T09:16:41.837Z,6.98
2023-02-19T09:19:08.458Z,7.14
2023-02-19T09:21:35.165Z,6.96
2023-02-19T09:24:01.865Z,7.42
2023-02-19T09:26:28.505Z,7.47
2023-02-19T09:28:55.163Z,6.86
2023-02-19T09:31:21.904Z,7.02
2023-02-19T09:33:48.664Z,6.53
2023-02-19T09:36:15.680Z,6.75
2023-02-19T09:38:42.518Z,6.63
2023-02-19T09:41:33.384Z,6.34
2023-02-19T09:44:00.593Z,7.27
2023-02-19T09:46:49.072Z,8.72
2023-02-19T09:49:18.537Z,13.77
2023-02-19T09:51:53.788Z,8.86
2023-02-19T09:54:29.439Z,9.78
2023-02-19T09:56:56.677Z,8.14
2023-02-19T09:59:28.903Z,7.17
2023-02-19T10:02:21.191Z,7.49
2023-02-19T10:04:48.395Z,22.34
2023-02-19T10:07:39.121Z,11.64
2023-02-19T10:10:14.834Z,7.57
2023-02-19T10:12:45.885Z,7.01
2023-02-19T10:15:26.679Z,7.33
2023-02-19T10:17:53.301Z,7.16
2023-02-19T10:20:20.941Z,7.86
2023-02-19T10:22:47.584Z,7.53
2023-02-19T10:25:15.108Z,7.35
2023-02-19T10:27:41.741Z,7.53
2023-02-19T10:30:20.032Z,8.42
2023-02-19T10:33:09.780Z,8.50
2023-02-19T10:35:37.807Z,8.17
2023-02-19T10:38:05.013Z,8.16
2023-02-19T10:40:31.687Z,7.89
2023-02-19T10:43:00.944Z,7.63
2023-02-19T10:45:40.478Z,7.75
2023-02-19T10:48:07.224Z,7.63
2023-02-19T10:50:36.317Z,7.74
2023-02-19T10:53:03.014Z,7.30
2023-02-19T10:55:36.029Z,7.17
2023-02-19T10:58:24.618Z,7.03
2023-02-19T11:01:22.772Z,6.89
2023-02-19T11:03:53.485Z,6.96
2023-02-19T11:06:21.235Z,7.03
2023-02-19T11:08:58.501Z,6.70
2023-02-19T11:11:37.958Z,6.86
2023-02-19T11:14:13.142Z,6.23
2023-02-19T11:16:47.064Z,5.70
2023-02-19T11:19:42.533Z,5.65
2023-02-19T11:22:30.714Z,5.35
2023-02-19T11:24:59.587Z,5.27
2023-02-19T11:27:26.246Z,4.77
2023-02-19T11:29:52.840Z,4.53
2023-02-19T11:32:24.484Z,4.31
2023-02-19T11:34:51.273Z,4.84
2023-02-19T11:37:19.350Z,5.69
2023-02-19T11:39:50.146Z,5.20
2023-02-19T11:42:44.820Z,5.26
2023-02-19T11:45:20.352Z,5.32
2023-02-19T11:47:49.972Z,5.47
2023-02-19T11:50:24.264Z,5.64
2023-02-19T11:53:14.734Z,5.77
2023-02-19T11:56:03.111Z,5.62
2023-02-19T11:59:00.388Z,5.33
2023-02-19T12:01:30.970Z,5.71
2023-02-19T12:04:16.318Z,5.31
2023-02-19T12:06:55.485Z,5.42
2023-02-19T12:09:28.121Z,5.27
2023-02-19T12:11:58.714Z,5.06
2023-02-19T12:14:43.531Z,5.38
2023-02-19T12:17:40.809Z,5.69
2023-02-19T12:20:16.305Z,6.75
2023-02-19T12:23:08.906Z,6.50
2023-02-19T12:26:14.218Z,6.25
2023-02-19T12:29:02.472Z,7.35
2023-02-19T12:31:42.856Z,7.60
2023-02-19T12:34:30.199Z,7.72
2023-02-19T12:37:11.757Z,7.02
2023-02-19T12:39:50.369Z,6.08
2023-02-19T12:43:05.087Z,6.16
2023-02-19T12:45:38.443Z,7.19
2023-02-19T12:48:13.989Z,6.07
2023-02-19T12:50:41.103Z,5.10
2023-02-19T12:53:43.285Z,5.63
2023-02-19T12:56:15.906Z,5.35
2023-02-19T12:58:52.162Z,5.50
2023-02-19T13:01:24.123Z,4.89
2023-02-19T13:04:13.914Z,4.32
2023-02-19T13:06:43.155Z,4.83
2023-02-19T13:09:16.115Z,5.36
2023-02-19T13:11:51.010Z,5.63
2023-02-19T13:14:26.936Z,5.38
2023-02-19T13:16:57.767Z,5.13
2023-02-19T13:19:24.458Z,5.48
2023-02-19T13:22:02.074Z,6.26
2023-02-19T13:24:33.861Z,7.44
2023-02-19T13:27:19.105Z,6.72
2023-02-19T13:29:48.526Z,7.72
2023-02-19T13:32:33.859Z,7.38
2023-02-19T13:35:15.785Z,6.88
2023-02-19T13:37:42.429Z,6.31
2023-02-19T13:40:31.596Z,6.78
2023-02-19T13:42:59.788Z,5.50
2023-02-19T13:45:38.348Z,4.73
2023-02-19T13:48:24.087Z,5.44
2023-02-19T13:50:51.386Z,5.02
2023-02-19T13:53:42.863Z,4.29
2023-02-19T13:56:31.377Z,4.07
2023-02-19T13:59:23.677Z,4.92
2023-02-19T14:01:50.304Z,6.27
2023-02-19T14:04:23.401Z,6.86
2023-02-19T14:07:05.236Z,7.10
2023-02-19T14:09:34.884Z,6.83
2023-02-19T14:12:02.263Z,6.53
2023-02-19T14:14:44.231Z,6.29
2023-02-19T14:17:10.774Z,5.92
2023-02-19T14:19:50.581Z,6.07
2023-02-19T14:22:45.098Z,5.82
2023-02-19T14:25:34.879Z,5.84
2023-02-19T14:28:10.183Z,5.58
2023-02-19T14:30:48.527Z,5.78
2023-02-19T14:33:16.296Z,5.38
2023-02-19T14:35:45.024Z,4.74
2023-02-19T14:38:26.622Z,5.22
2023-02-19T14:40:53.292Z,5.17
2023-02-19T14:43:20.944Z,5.14
2023-02-19T14:45:49.658Z,5.35
2023-02-19T14:48:19.672Z,5.82
2023-02-19T14:50:47.952Z,5.58
2023-02-19T14:53:14.594Z,5.57
2023-02-19T14:55:41.236Z,5.86
2023-02-19T14:58:12.462Z,5.98
2023-02-19T15:00:40.552Z,5.91
2023-02-19T15:03:07.389Z,5.71
2023-02-19T15:05:35.352Z,5.26
2023-02-19T15:08:03.794Z,5.64
2023-02-19T15:10:31.069Z,6.22
2023-02-19T15:13:01.497Z,4.93
2023-02-19T15:15:29.274Z,4.66
2023-02-19T15:17:56.516Z,4.16
2023-02-19T15:20:24.278Z,4.38
2023-02-19T15:22:51.314Z,4.42
2023-02-19T15:25:19.847Z,4.44
2023-02-19T15:27:46.752Z,4.85
2023-02-19T15:30:24.595Z,4.10
2023-02-19T15:32:58.576Z,3.87
2023-02-19T15:35:28.528Z,4.16
2023-02-19T15:37:55.265Z,3.99
2023-02-19T15:40:28.414Z,3.71
2023-02-19T15:42:55.075Z,3.57
2023-02-19T15:45:52.153Z,3.78
2023-02-19T15:48:20.909Z,3.68
2023-02-19T15:50:49.181Z,3.40
2023-02-19T15:53:17.617Z,3.43
2023-02-19T15:56:17.323Z,3.59
2023-02-19T15:58:47.842Z,2.94
2023-02-19T16:01:24.427Z,2.71
2023-02-19T16:03:51.496Z,2.75
2023-02-19T16:06:18.213Z,2.53
2023-02-19T16:08:46.400Z,2.74
2023-02-19T16:11:38.848Z,2.17
2023-02-19T16:14:25.257Z,1.68
2023-02-19T16:16:55.087Z,1.47
2023-02-19T16:19:28.235Z,1.20
2023-02-19T16:21:55.332Z,1.16
2023-02-19T16:24:29.152Z,1.05
2023-02-19T16:26:55.765Z,1.09
2023-02-19T16:29:32.265Z,1.09
2023-02-19T16:32:03.911Z,1.23
2023-02-19T16:34:44.077Z,1.30
2023-02-19T16:37:40.862Z,1.08
2023-02-19T16:40:07.554Z,1.03
2023-02-19T16:42:34.845Z,0.99
2023-02-19T16:45:01.514Z,1.06
2023-02-19T16:47:46.436Z,1.71
2023-02-19T16:50:23.129Z,1.22
2023-02-19T16:53:00.664Z,1.20
2023-02-19T16:55:27.706Z,1.22
2023-02-19T16:57:54.500Z,1.09
2023-02-19T17:00:25.556Z,1.04
2023-02-19T17:02:53.924Z,1.05
2023-02-19T17:05:20.600Z,1.24
2023-02-19T17:07:47.264Z,1.13
2023-02-19T17:10:22.785Z,1.19
2023-02-19T17:12:50.092Z,1.09
2023-02-19T17:15:16.701Z,1.11
2023-02-19T17:17:43.357Z,1.18
2023-02-19T17:20:15.630Z,1.11
2023-02-19T17:22:42.342Z,1.02
2023-02-19T17:25:09.019Z,1.21
2023-02-19T17:27:35.813Z,1.07
2023-02-19T17:30:04.226Z,1.15
2023-02-19T17:32:32.350Z,1.03
2023-02-19T17:35:00.219Z,1.02
2023-02-19T17:37:28.256Z,1.28
2023-02-19T17:39:54.905Z,1.44
2023-02-19T17:42:21.622Z,1.17
2023-02-19T17:44:48.357Z,1.17
2023-02-19T17:47:14.957Z,4.51
2023-02-19T17:49:41.635Z,2.23
2023-02-19T17:52:08.235Z,1.29
2023-02-19T17:54:34.898Z,1.15
2023-02-19T17:57:01.564Z,1.23
2023-02-19T17:59:28.178Z,1.30
2023-02-19T18:01:54.796Z,1.14
2023-02-19T18:04:21.545Z,1.44
2023-02-19T18:06:48.210Z,1.39
2023-02-19T18:09:14.817Z,1.23
2023-02-19T18:11:45.271Z,1.25
2023-02-19T18:14:11.926Z,1.21
2023-02-19T18:16:44.049Z,1.21
2023-02-19T18:19:10.724Z,1.10
2023-02-19T18:21:37.404Z,1.12
2023-02-19T18:24:04.466Z,1.15
2023-02-19T18:26:31.161Z,1.09
2023-02-19T18:28:59.697Z,1.15
2023-02-19T18:31:26.426Z,1.27
2023-02-19T18:33:54.314Z,1.16
2023-02-19T18:36:22.445Z,1.33
2023-02-19T18:38:50.325Z,1.26
2023-02-19T18:41:19.764Z,1.47
2023-02-19T18:43:47.222Z,1.37
2023-02-19T18:46:14.439Z,1.40
2023-02-19T18:48:42.546Z,2.10
2023-02-19T18:51:10.088Z,3.13
2023-02-19T18:53:38.348Z,1.72
2023-02-19T18:56:06.486Z,1.93
2023-02-19T18:58:33.103Z,1.55
2023-02-19T19:00:59.787Z,1.32
2023-02-19T19:03:26.558Z,1.44
2023-02-19T19:05:53.289Z,1.89
2023-02-19T19:08:20.071Z,1.40
2023-02-19T19:10:46.719Z,1.38
2023-02-19T19:13:14.339Z,1.43
2023-02-19T19:15:40.990Z,2.88
2023-02-19T19:18:08.834Z,4.04
2023-02-19T19:20:36.320Z,1.98
2023-02-19T19:23:02.938Z,2.05
2023-02-19T19:25:29.576Z,2.17
2023-02-19T19:27:56.220Z,2.11
2023-02-19T19:30:22.985Z,1.91
2023-02-19T19:32:50.044Z,2.09
2023-02-19T19:35:17.528Z,1.95
2023-02-19T19:37:44.172Z,1.75
2023-02-19T19:40:11.425Z,1.92
2023-02-19T19:42:38.378Z,1.84
2023-02-19T19:45:06.695Z,1.79
2023-02-19T19:47:34.520Z,2.03
2023-02-19T19:50:02.410Z,1.96
2023-02-19T19:52:29.011Z,1.91
2023-02-19T19:54:55.808Z,1.85
2023-02-19T19:57:24.368Z,1.90
2023-02-19T19:59:52.501Z,2.08
2023-02-19T20:02:20.475Z,2.20
2023-02-19T20:04:47.135Z,1.73
2023-02-19T20:07:14.384Z,1.87
2023-02-19T20:09:42.803Z,2.49
2023-02-19T20:12:10.420Z,2.90
2023-02-19T20:14:38.371Z,3.11
2023-02-19T20:17:06.475Z,1.98
2023-02-19T20:19:34.422Z,1.87
2023-02-19T20:22:01.074Z,2.23
2023-02-19T20:24:27.915Z,2.40
2023-02-19T20:26:55.855Z,2.02
2023-02-19T20:29:22.527Z,1.67
2023-02-19T20:31:49.659Z,1.75
2023-02-19T20:34:16.445Z,1.75
2023-02-19T20:36:47.069Z,1.71
2023-02-19T20:39:14.874Z,1.72
2023-02-19T20:41:48.057Z,3.03
2023-02-19T20:44:14.706Z,2.88
2023-02-19T20:46:44.947Z,2.28
2023-02-19T20:49:16.552Z,2.01
2023-02-19T20:51:50.443Z,5.67
2023-02-19T20:54:18.353Z,3.62
2023-02-19T20:56:48.629Z,2.92
2023-02-19T20:59:16.097Z,1.73
2023-02-19T21:01:42.815Z,1.97
2023-02-19T21:04:09.480Z,2.48
2023-02-19T21:06:36.119Z,2.41
2023-02-19T21:09:03.213Z,2.35
2023-02-19T21:11:29.826Z,1.91
2023-02-19T21:13:56.444Z,1.97
2023-02-19T21:16:23.271Z,2.26
2023-02-19T21:18:49.946Z,1.68
2023-02-19T21:21:20.326Z,1.40
2023-02-19T21:23:47.556Z,1.52
2023-02-19T21:26:14.293Z,1.79
2023-02-19T21:28:41.063Z,1.69
2023-02-19T21:31:07.871Z,1.59
2023-02-19T21:33:34.540Z,1.61
2023-02-19T21:36:04.724Z,3.80
2023-02-19T21:38:32.680Z,2.01
2023-02-19T21:40:59.398Z,1.76
2023-02-19T21:43:26.542Z,1.90
2023-02-19T21:45:53.197Z,1.65
2023-02-19T21:48:19.812Z,1.41
2023-02-19T21:50:46.452Z,1.91
2023-02-19T21:53:13.439Z,1.65
2023-02-19T21:55:42.931Z,1.89
2023-02-19T21:58:16.591Z,1.62
2023-02-19T22:00:43.357Z,1.50
2023-02-19T22:03:15.292Z,1.38
2023-02-19T22:05:41.930Z,1.96
2023-02-19T22:08:08.573Z,2.17
2023-02-19T22:10:35.188Z,1.63
2023-02-19T22:13:01.781Z,1.83
2023-02-19T22:15:28.423Z,1.47
2023-02-19T22:17:55.167Z,1.77
2023-02-19T22:20:21.837Z,1.42
2023-02-19T22:22:48.621Z,1.58
2023-02-19T22:25:15.339Z,1.62
2023-02-19T22:27:41.997Z,1.42
2023-02-19T22:30:09.098Z,1.45
2023-02-19T22:32:35.888Z,1.73
2023-02-19T22:35:02.692Z,1.59
2023-02-19T22:37:29.373Z,1.65
2023-02-19T22:39:56.047Z,1.49
2023-02-19T22:42:22.665Z,1.52
2023-02-19T22:44:49.292Z,1.35
2023-02-19T22:47:17.716Z,1.47
2023-02-19T22:49:44.314Z,1.32
2023-02-19T22:52:10.946Z,1.88
2023-02-19T22:54:37.643Z,1.56
2023-02-19T22:57:04.276Z,1.33
2023-02-19T22:59:31.018Z,1.71
2023-02-19T23:01:57.726Z,1.87
2023-02-19T23:04:24.987Z,1.65
2023-02-19T23:06:51.702Z,1.58
2023-02-19T23:09:20.752Z,1.62
2023-02-19T23:11:47.396Z,1.67
2023-02-19T23:14:15.837Z,1.62
2023-02-19T23:16:42.573Z,1.64
2023-02-19T23:19:09.783Z,1.55
2023-02-19T23:21:36.414Z,1.73
2023-02-19T23:24:03.252Z,1.64
2023-02-19T23:26:29.862Z,1.67
2023-02-19T23:28:56.483Z,1.51
2023-02-19T23:31:23.337Z,1.65
2023-02-19T23:33:50.003Z,2.25
2023-02-19T23:36:16.591Z,2.11
2023-02-19T23:38:46.368Z,2.00
2023-02-19T23:41:14.201Z,1.77
2023-02-19T23:43:40.881Z,2.12
2023-02-19T23:46:07.556Z,1.91
2023-02-19T23:48:34.175Z,1.86
2023-02-19T23:51:00.780Z,1.89
2023-02-19T23:53:27.451Z,1.88
2023-02-19T23:55:54.239Z,2.00
2023-02-19T23:58:21.004Z,1.97
